ADDS METAR Data INFO
IDs: Format: Raw Decoded Include TAF

Data at: 1748 UTC 21 Oct 2017

KOMH 211735Z AUTO 00000KT 10SM CLR 24/08 A3032 RMK AO2
KOMH 211715Z AUTO 00000KT 10SM CLR 23/07 A3033 RMK AO2
KOMH 211655Z AUTO 00000KT 10SM CLR 22/07 A3034 RMK AO2
KOMH 211635Z AUTO 00000KT 10SM CLR 22/06 A3035 RMK AO2
KOMH 211615Z AUTO 00000KT 10SM CLR 23/07 A3035 RMK AO2
KOMH 211555Z AUTO 00000KT 10SM CLR 22/07 A3035 RMK AO2
KOMH 211535Z AUTO 00000KT 10SM CLR 22/07 A3036 RMK AO2
KOMH 211515Z AUTO 00000KT 10SM CLR 21/07 A3036 RMK AO2
KOMH 211455Z AUTO 00000KT 10SM CLR 20/08 A3036 RMK AO2
KOMH 211435Z AUTO 00000KT 10SM CLR 20/10 A3036 RMK AO2
KOMH 211415Z AUTO 00000KT 10SM CLR 18/11 A3036 RMK AO2
KOMH 211355Z AUTO 00000KT 10SM CLR 16/11 A3036 RMK AO2
KOMH 211335Z AUTO 00000KT 10SM CLR 14/11 A3036 RMK AO2
KOMH 211315Z AUTO 00000KT 10SM CLR 12/11 A3035 RMK AO2
KOMH 211255Z AUTO 00000KT 10SM CLR 11/10 A3035 RMK AO2
KOMH 211235Z AUTO 00000KT 10SM CLR 10/08 A3034 RMK AO2
KOMH 211215Z AUTO 00000KT 10SM CLR 08/07 A3034 RMK AO2
KOMH 211155Z AUTO 00000KT 4SM BR CLR 07/07 A3033 RMK AO2
KOMH 211135Z AUTO 00000KT 7SM CLR 06/06 A3032 RMK AO2
KOMH 211115Z AUTO 00000KT 7SM CLR 06/06 A3031 RMK AO2
KOMH 211055Z AUTO 00000KT 10SM CLR 07/06 A3031 RMK AO2
KOMH 211035Z AUTO 00000KT 10SM CLR 07/06 A3031 RMK AO2
KOMH 211015Z AUTO 00000KT 10SM CLR 07/07 A3031 RMK AO2
KOMH 210955Z AUTO 00000KT 10SM CLR 07/07 A3030 RMK AO2
KOMH 210935Z AUTO 00000KT 10SM CLR 07/07 A3030 RMK AO2
KOMH 210915Z AUTO 00000KT 10SM CLR 07/07 A3029 RMK AO2
KOMH 210855Z AUTO 00000KT 10SM CLR 07/07 A3028 RMK AO2
KOMH 210835Z AUTO 00000KT 10SM CLR 08/07 A3028 RMK AO2
KOMH 210815Z AUTO 00000KT 10SM CLR 07/07 A3028 RMK AO2
KOMH 210755Z AUTO 00000KT 10SM CLR 07/07 A3028 RMK AO2
KOMH 210735Z AUTO 00000KT 10SM CLR 08/07 A3028 RMK AO2
KOMH 210715Z AUTO 00000KT 10SM CLR 08/07 A3028 RMK AO2
KOMH 210655Z AUTO 00000KT 10SM CLR 08/07 A3028 RMK AO2
KOMH 210635Z AUTO 00000KT 10SM CLR 08/07 A3028 RMK AO2
KOMH 210615Z AUTO 00000KT 10SM CLR 08/07 A3028 RMK AO2
KOMH 210555Z AUTO 00000KT 10SM CLR 08/07 A3028 RMK AO2
KOMH 210535Z AUTO 00000KT 10SM CLR 08/08 A3028 RMK AO2
KOMH 210515Z AUTO 00000KT 10SM CLR 08/08 A3028 RMK AO2
KOMH 210455Z AUTO 00000KT 10SM CLR 08/08 A3028 RMK AO2
KOMH 210435Z AUTO 00000KT 10SM CLR 09/08 A3028 RMK AO2
KOMH 210415Z AUTO 00000KT 10SM CLR 09/08 A3028 RMK AO2
KOMH 210355Z AUTO 00000KT 10SM CLR 10/09 A3027 RMK AO2
KOMH 210335Z AUTO 00000KT 10SM CLR 09/08 A3027 RMK AO2
KOMH 210315Z AUTO 00000KT 10SM CLR 10/10 A3026 RMK AO2
KOMH 210255Z AUTO 00000KT 10SM CLR 10/09 A3026 RMK AO2
KOMH 210235Z AUTO 00000KT 10SM CLR 11/10 A3026 RMK AO2
KOMH 210215Z AUTO 00000KT 10SM CLR 11/10 A3025 RMK AO2
KOMH 210155Z AUTO 00000KT 10SM CLR 11/10 A3024 RMK AO2
KOMH 210135Z AUTO 00000KT 10SM CLR 12/11 A3024 RMK AO2
KOMH 210115Z AUTO 00000KT 10SM CLR 12/10 A3024 RMK AO2
KOMH 210055Z AUTO 00000KT 10SM CLR 12/11 A3023 RMK AO2
KOMH 210035Z AUTO 00000KT 10SM CLR 13/11 A3023 RMK AO2
KOMH 210015Z AUTO 00000KT 10SM CLR 13/11 A3023 RMK AO2
KOMH 210000Z AUTO 00000KT 10SM CLR 13/11 A3022 RMK AO2
KOMH 202335Z AUTO 00000KT 10SM CLR 13/11 A3022 RMK AO2
KOMH 202315Z AUTO 00000KT 10SM CLR 16/12 A3021 RMK AO2
KOMH 202255Z AUTO 00000KT 10SM CLR 17/12 A3021 RMK AO2
KOMH 202235Z AUTO 00000KT 10SM CLR 18/12 A3020 RMK AO2
KOMH 202215Z AUTO 00000KT 10SM CLR 21/12 A3019 RMK AO2
KOMH 202155Z AUTO 00000KT 10SM CLR 22/11 A3019 RMK AO2
KOMH 202135Z AUTO 00000KT 10SM CLR 23/10 A3019 RMK AO2
KOMH 202115Z AUTO 00000KT 10SM CLR 23/10 A3019 RMK AO2
KOMH 202100Z AUTO 00000KT 10SM CLR 24/10 A3019 RMK AO2
KOMH 202035Z AUTO 00000KT 10SM CLR 24/10 A3019 RMK AO2
KOMH 202015Z AUTO 03005KT 10SM CLR 24/10 A3019 RMK AO2
KOMH 201955Z AUTO 00000KT 10SM CLR 24/10 A3019 RMK AO2
KOMH 201935Z AUTO 00000KT 10SM SCT055 25/10 A3020 RMK AO2
KOMH 201915Z AUTO 00000KT 10SM CLR 24/11 A3020 RMK AO2
KOMH 201855Z AUTO 00000KT 10SM CLR 24/10 A3020 RMK AO2
KOMH 201835Z AUTO 34004KT 10SM CLR 25/11 A3021 RMK AO2
KOMH 201815Z AUTO 00000KT 10SM CLR 24/11 A3021 RMK AO2
KOMH 201800Z AUTO 00000KT 10SM CLR 24/10 A3021 RMK AO2
KOMH 201735Z AUTO 28005KT 10SM CLR 24/11 A3022 RMK AO2
KOMH 201715Z AUTO 00000KT 10SM CLR 23/11 A3023 RMK AO2
KOMH 201655Z AUTO 01004KT 7SM CLR 23/10 A3025 RMK AO2
KOMH 201635Z AUTO 00000KT 10SM CLR 23/10 A3026 RMK AO2
KOMH 201615Z AUTO 00000KT 10SM CLR 22/10 A3026 RMK AO2
KOMH 201555Z AUTO 00000KT 10SM CLR 23/11 A3026 RMK AO2
KOMH 201535Z AUTO 07003KT 10SM CLR 22/11 A3027 RMK AO2
KOMH 201515Z AUTO 01003KT 10SM CLR 21/10 A3027 RMK AO2
KOMH 201455Z AUTO 00000KT 10SM CLR 21/10 A3027 RMK AO2
KOMH 201435Z AUTO 00000KT 10SM CLR 20/10 A3027 RMK AO2
KOMH 201415Z AUTO 00000KT 10SM CLR 20/09 A3027 RMK AO2
KOMH 201355Z AUTO 26005KT 10SM CLR 18/10 A3027 RMK AO2
KOMH 201335Z AUTO 00000KT 10SM CLR 16/10 A3026 RMK AO2
KOMH 201315Z AUTO 00000KT 10SM CLR 14/10 A3026 RMK AO2
KOMH 201255Z AUTO 00000KT 10SM CLR 11/08 A3026 RMK AO2
KOMH 201235Z AUTO 00000KT 10SM CLR 08/07 A3025 RMK AO2
KOMH 201215Z AUTO 00000KT 10SM CLR 08/07 A3024 RMK AO2
KOMH 201155Z AUTO 00000KT 10SM CLR 06/06 A3023 RMK AO2
KOMH 201135Z AUTO 00000KT 10SM CLR 07/06 A3023 RMK AO2
KOMH 201115Z AUTO 00000KT 10SM CLR 07/06 A3022 RMK AO2
KOMH 201055Z AUTO 00000KT 10SM CLR 07/06 A3022 RMK AO2
KOMH 201035Z AUTO 00000KT 10SM CLR 06/06 A3022 RMK AO2
KOMH 201015Z AUTO 00000KT 10SM CLR 06/06 A3021 RMK AO2
KOMH 200955Z AUTO 00000KT 10SM CLR 06/06 A3021 RMK AO2
KOMH 200935Z AUTO 00000KT 10SM CLR 06/06 A3020 RMK AO2
KOMH 200915Z AUTO 00000KT 10SM CLR 07/06 A3019 RMK AO2
KOMH 200855Z AUTO 00000KT 10SM CLR 06/06 A3019 RMK AO2
KOMH 200835Z AUTO 00000KT 10SM CLR 07/06 A3019 RMK AO2
KOMH 200815Z AUTO 00000KT 10SM CLR 07/06 A3018 RMK AO2
KOMH 200755Z AUTO 00000KT 10SM CLR 07/06 A3018 RMK AO2
KOMH 200735Z AUTO 00000KT 10SM CLR 07/07 A3018 RMK AO2
KOMH 200715Z AUTO 00000KT 10SM CLR 07/07 A3018 RMK AO2
KOMH 200655Z AUTO 00000KT 10SM CLR 07/06 A3018 RMK AO2
KOMH 200635Z AUTO 00000KT 10SM CLR 07/06 A3018 RMK AO2
KOMH 200615Z AUTO 00000KT 10SM CLR 07/06 A3018 RMK AO2
KOMH 200555Z AUTO 00000KT 10SM CLR 08/07 A3019 RMK AO2